createdAt,value
2019-04-23T00:01:46.368Z,15.27
2019-04-23T00:07:51.953Z,15.20
2019-04-23T00:14:02.740Z,15.09
2019-04-23T00:20:04.522Z,15.02
2019-04-23T00:26:13.152Z,14.93
2019-04-23T00:32:21.722Z,14.76
2019-04-23T00:44:41.463Z,14.51
2019-04-23T00:50:44.953Z,14.40
2019-04-23T00:56:54.518Z,14.34
2019-04-23T01:02:59.086Z,14.23
2019-04-23T01:09:03.662Z,14.17
2019-04-23T01:21:03.420Z,13.99
2019-04-23T01:33:45.315Z,13.72
2019-04-23T01:39:52.809Z,13.59
2019-04-23T01:46:02.745Z,13.50
2019-04-23T01:52:09.444Z,13.47
2019-04-23T01:58:32.194Z,13.40
2019-04-23T02:04:22.938Z,13.35
2019-04-23T02:10:39.524Z,13.22
2019-04-23T02:23:11.671Z,13.14
2019-04-23T02:29:26.610Z,13.05
2019-04-23T02:35:50.527Z,12.92
2019-04-23T02:41:46.560Z,12.76
2019-04-23T02:47:46.630Z,12.69
2019-04-23T03:00:18.925Z,12.48
2019-04-23T03:12:14.728Z,12.42
2019-04-23T03:24:45.776Z,12.32
2019-04-23T03:43:07.070Z,12.13
2019-04-23T03:49:07.108Z,12.14
2019-04-23T03:55:31.501Z,12.07
2019-04-23T04:01:45.325Z,12.00
2019-04-23T04:08:56.248Z,11.90
2019-04-23T04:13:58.259Z,11.83
2019-04-23T04:25:56.759Z,11.77
2019-04-23T04:32:06.470Z,11.75
2019-04-23T04:38:25.780Z,11.78
2019-04-23T04:44:37.695Z,11.75
2019-04-23T04:50:28.821Z,11.76
2019-04-23T04:56:40.447Z,11.72
2019-04-23T05:03:03.263Z,11.81
2019-04-23T05:08:55.255Z,11.80
2019-04-23T05:15:04.612Z,11.81
2019-04-23T05:27:32.213Z,11.93
2019-04-23T05:33:17.059Z,12.06
2019-04-23T05:39:30.616Z,12.18
2019-04-23T05:45:38.241Z,12.18
2019-04-23T05:57:45.729Z,12.44
2019-04-23T06:04:03.728Z,12.64
2019-04-23T06:10:06.455Z,12.78
2019-04-23T06:16:19.815Z,12.94
2019-04-23T06:28:27.698Z,13.22
2019-04-23T06:34:50.103Z,13.41
2019-04-23T06:40:43.550Z,13.56
2019-04-23T06:52:57.276Z,13.91
2019-04-23T06:59:10.914Z,14.14
2019-04-23T07:17:24.512Z,14.57
2019-04-23T07:29:50.615Z,14.96
2019-04-23T07:35:51.924Z,15.18
2019-04-23T07:48:16.566Z,15.45
2019-04-23T07:54:41.321Z,15.52
2019-04-23T08:00:45.487Z,15.65
2019-04-23T08:06:52.430Z,15.75
2019-04-23T08:13:00.952Z,15.98
2019-04-23T08:19:26.298Z,16.16
2019-04-23T08:25:27.085Z,16.30
2019-04-23T08:31:40.274Z,16.45
2019-04-23T08:44:06.205Z,16.68
2019-04-23T08:49:50.745Z,16.86
2019-04-23T08:56:08.712Z,17.08
2019-04-23T09:02:23.978Z,17.22
2019-04-23T09:08:23.397Z,17.27
2019-04-23T09:14:23.127Z,17.44
2019-04-23T09:20:34.277Z,17.55
2019-04-23T09:26:40.084Z,17.69
2019-04-23T09:33:04.113Z,17.70
2019-04-23T09:39:22.521Z,17.81
2019-04-23T09:45:33.880Z,17.80
2019-04-23T09:57:51.933Z,18.02
2019-04-23T10:03:41.645Z,18.06
2019-04-23T10:09:38.368Z,18.08
2019-04-23T10:15:46.738Z,18.20
2019-04-23T10:21:53.252Z,18.31
2019-04-23T10:28:03.201Z,18.43
2019-04-23T10:34:08.267Z,18.59
2019-04-23T10:40:19.454Z,18.71
2019-04-23T10:47:12.186Z,18.89
2019-04-23T11:05:52.164Z,19.64
2019-04-23T11:12:01.051Z,19.93
2019-04-23T11:17:58.442Z,20.18
2019-04-23T11:24:20.702Z,20.27
2019-04-23T11:42:44.338Z,20.99
2019-04-23T11:54:53.545Z,21.38
2019-04-23T12:01:42.095Z,21.43
2019-04-23T12:07:57.561Z,21.32
2019-04-23T12:14:22.821Z,21.42
2019-04-23T12:20:25.657Z,21.49
2019-04-23T12:26:40.762Z,21.75
2019-04-23T12:38:41.010Z,22.21
2019-04-23T12:44:58.102Z,22.41
2019-04-23T12:51:28.176Z,22.63
2019-04-23T12:57:12.647Z,22.84
2019-04-23T13:03:18.296Z,23.06
2019-04-23T13:15:34.710Z,23.13
2019-04-23T13:33:58.099Z,23.02
2019-04-23T13:40:13.041Z,23.02
2019-04-23T13:46:12.821Z,23.15
2019-04-23T13:52:47.850Z,23.26
2019-04-23T14:11:15.836Z,23.51
2019-04-23T14:17:13.077Z,23.54
2019-04-23T14:23:14.154Z,23.46
2019-04-23T14:29:26.450Z,23.51
2019-04-23T14:35:40.299Z,23.54
2019-04-23T14:41:26.246Z,23.69
2019-04-23T14:47:48.702Z,23.82
2019-04-23T14:53:48.694Z,23.94
2019-04-23T15:00:03.263Z,24.09
2019-04-23T15:06:26.123Z,24.24
2019-04-23T15:12:22.593Z,24.35
2019-04-23T15:18:44.715Z,24.54
2019-04-23T15:24:52.423Z,24.64
2019-04-23T15:30:57.309Z,25.07
2019-04-23T15:37:14.618Z,25.45
2019-04-23T15:43:12.205Z,25.78
2019-04-23T15:55:20.940Z,25.80
2019-04-23T16:07:29.652Z,25.55
2019-04-23T16:14:04.613Z,25.63
2019-04-23T16:20:33.403Z,25.69
2019-04-23T16:26:36.994Z,25.62
2019-04-23T16:39:11.928Z,24.92
2019-04-23T16:45:23.936Z,24.82
2019-04-23T16:51:29.172Z,24.76
2019-04-23T16:57:45.743Z,24.60
2019-04-23T17:10:11.515Z,24.27
2019-04-23T17:22:06.277Z,23.82
2019-04-23T17:40:39.502Z,23.48
2019-04-23T17:46:46.641Z,23.36
2019-04-23T17:52:58.354Z,23.23
2019-04-23T17:59:00.733Z,23.07
2019-04-23T18:05:13.015Z,22.89
2019-04-23T18:23:28.494Z,21.81
2019-04-23T18:29:51.603Z,21.58
2019-04-23T18:35:43.984Z,21.45
2019-04-23T18:42:11.661Z,21.30
2019-04-23T18:54:32.960Z,20.76
2019-04-23T19:06:51.118Z,20.35
2019-04-23T19:13:23.365Z,20.19
2019-04-23T19:19:31.752Z,19.93
2019-04-23T19:25:28.044Z,19.85
2019-04-23T19:44:02.890Z,19.62
2019-04-23T19:50:17.942Z,19.46
2019-04-23T19:56:29.318Z,19.22
2019-04-23T20:02:45.326Z,18.92
2019-04-23T20:27:06.032Z,17.92
2019-04-23T20:39:21.527Z,17.52
2019-04-23T20:45:38.752Z,17.35
2019-04-23T20:51:41.242Z,17.21
2019-04-23T20:58:07.212Z,17.17
2019-04-23T21:04:17.289Z,17.22
2019-04-23T21:16:36.022Z,17.21
2019-04-23T21:22:51.886Z,17.05
2019-04-23T21:28:54.034Z,16.86
2019-04-23T21:35:16.246Z,16.79
2019-04-23T21:53:47.554Z,16.77
2019-04-23T21:59:52.798Z,16.80
2019-04-23T22:06:07.764Z,16.89
2019-04-23T22:12:11.206Z,16.92
2019-04-23T22:18:18.252Z,16.86
2019-04-23T22:24:15.823Z,16.67
2019-04-23T22:30:33.410Z,16.49
2019-04-23T22:36:44.496Z,16.30
2019-04-23T22:43:04.108Z,16.28
2019-04-23T22:49:18.024Z,16.28
2019-04-23T22:55:07.953Z,16.09
2019-04-23T23:07:28.656Z,16.06
2019-04-23T23:13:48.094Z,16.03
2019-04-23T23:19:57.223Z,16.22
2019-04-23T23:25:52.036Z,16.30
2019-04-23T23:32:02.229Z,16.42
2019-04-23T23:38:08.436Z,16.36
2019-04-23T23:44:29.890Z,16.49
2019-04-23T23:56:19.338Z,16.70
